Terminal Aerodrome Forecast
Issued by NWS

Home | Current Version | Previous Version | Text Only | Print | Product List | Glossary On
Versions: 1 2 3 4 5 6 7 8 9 10 11 12 13 14 15 16 17 18
000
FTUS43 KABR 230937 AAA
TAFMBG
TAF AMD
KMBG 230937Z 2310/2406 14010KT P6SM VCSH BKN090 OVC120
      TEMPO 2310/2313 -SHRA BKN080 OVC100
     FM231400 13008KT P6SM OVC050
     FM231700 07010KT P6SM OVC015
      TEMPO 2323/2402 5SM -RA
     FM240300 36015KT P6SM OVC015=

USA.gov is the U.S. government's official web portal to all federal, state and local government web resources and services.